Time;durP1;ratioP1;P1;durP2;ratioP2;P2;SDS_P1;SDS_P2;PMS_P1;PMS_P2;Temp;Humidity;BMP_temperature;BMP_pressure;BME280_temperature;BME280_humidity;BME280_pressure;Samples;Min_cycle;Max_cycle;Signal;HPM_P1;HPM_P2
2021/06/03 00:02:23;;;;;;;6.57;3.47;;;;;;;12.32;69.75;99931.22;4993109;28;20236;-81
2021/06/03 00:04:53;;;;;;;3.90;3.40;;;;;;;12.36;69.80;99935.09;4963521;28;20236;-80
2021/06/03 00:07:22;;;;;;;5.83;3.83;;;;;;;12.29;70.15;99920.94;5035839;23;20242;-82
2021/06/03 00:09:58;;;;;;;3.77;3.47;;;;;;;12.36;70.05;99928.94;5018393;28;20225;-81
2021/06/03 00:12:32;;;;;;;3.90;3.60;;;;;;;12.39;69.78;99927.66;5034645;28;20244;-79
2021/06/03 00:15:00;;;;;;;4.10;3.40;;;;;;;12.25;70.23;99922.44;5035036;28;20210;-82
2021/06/03 00:17:28;;;;;;;4.20;3.70;;;;;;;12.28;70.39;99926.53;5017322;28;20640;-79
2021/06/03 00:19:57;;;;;;;4.73;3.87;;;;;;;12.33;70.32;99930.19;5033320;28;20257;-81
2021/06/03 00:22:30;;;;;;;4.00;3.60;;;;;;;12.26;70.40;99932.16;5015578;28;20296;-82
2021/06/03 00:25:04;;;;;;;3.90;3.50;;;;;;;12.25;70.90;99940.41;5063464;23;20262;-82
2021/06/03 00:27:32;;;;;;;4.87;3.53;;;;;;;12.17;71.14;99938.84;5038342;28;20238;-80
2021/06/03 00:30:20;;;;;;;4.63;3.50;;;;;;;12.08;71.88;99929.44;5056545;28;20213;-81
2021/06/03 00:33:32;;;;;;;4.50;3.50;;;;;;;12.06;72.22;99939.56;5063441;23;20178;-79
2021/06/03 00:36:02;;;;;;;5.20;3.70;;;;;;;12.02;72.52;99940.25;5057731;28;20264;-79
2021/06/03 00:38:30;;;;;;;6.37;3.73;;;;;;;11.97;72.65;99938.22;5122506;23;20235;-81
2021/06/03 00:40:57;;;;;;;4.20;3.87;;;;;;;11.94;72.43;99949.41;5018551;28;20211;-79
2021/06/03 00:43:30;;;;;;;4.57;4.03;;;;;;;11.84;72.92;99930.28;5036361;28;20191;-79
2021/06/03 00:45:57;;;;;;;4.40;3.70;;;;;;;11.79;72.89;99939.00;5135023;23;20226;-78
2021/06/03 00:48:51;;;;;;;6.20;4.20;;;;;;;11.71;72.86;99923.13;5024540;28;20219;-80
2021/06/03 00:51:18;;;;;;;4.60;4.07;;;;;;;11.62;73.21;99932.50;5019255;28;20195;-79
2021/06/03 00:53:49;;;;;;;4.63;4.10;;;;;;;11.74;73.15;99946.88;5034307;28;20215;-79
2021/06/03 00:56:40;;;;;;;4.67;4.27;;;;;;;11.67;73.39;99951.44;5020996;28;20227;-79
2021/06/03 00:59:10;;;;;;;5.03;4.07;;;;;;;11.58;74.01;99954.63;5055300;23;20230;-79
2021/06/03 01:01:41;;;;;;;4.47;3.73;;;;;;;11.52;74.33;99948.28;5019663;28;20234;-78
2021/06/03 01:04:21;;;;;;;4.47;4.00;;;;;;;11.49;74.35;99948.69;5024716;23;20298;-80
2021/06/03 01:06:56;;;;;;;4.30;3.90;;;;;;;11.48;74.38;99950.56;5023377;23;20227;-80
2021/06/03 01:09:34;;;;;;;4.80;4.27;;;;;;;11.36;75.00;99938.91;5004052;28;20194;-79
2021/06/03 01:12:19;;;;;;;4.70;4.27;;;;;;;11.39;75.25;99945.66;5024812;23;20222;-79
2021/06/03 01:15:20;;;;;;;5.73;4.20;;;;;;;11.29;75.05;99935.41;5019663;23;20718;-78
2021/06/03 01:17:50;;;;;;;5.93;4.00;;;;;;;11.27;75.09;99940.19;5102418;23;20227;-79
2021/06/03 01:20:21;;;;;;;5.23;4.70;;;;;;;11.23;75.39;99941.66;5033756;28;20269;-79
2021/06/03 01:23:08;;;;;;;5.00;4.60;;;;;;;11.23;75.92;99947.03;5017156;28;20601;-78
2021/06/03 01:25:38;;;;;;;4.47;4.07;;;;;;;11.19;75.73;99940.47;5033945;28;20194;-78
2021/06/03 01:28:05;;;;;;;4.70;4.30;;;;;;;11.13;75.75;99940.50;5033742;28;20245;-80
2021/06/03 01:30:59;;;;;;;4.63;4.20;;;;;;;11.16;75.93;99946.22;5033225;28;20222;-79
2021/06/03 01:33:40;;;;;;;5.10;4.63;;;;;;;11.08;76.06;99941.13;5042786;23;20202;-80
2021/06/03 01:36:16;;;;;;;5.10;4.60;;;;;;;11.12;75.96;99946.88;5037733;28;20222;-79
2021/06/03 01:38:44;;;;;;;4.77;4.30;;;;;;;11.09;76.02;99948.16;5036748;28;20186;-79
2021/06/03 01:41:16;;;;;;;5.00;4.47;;;;;;;10.97;76.24;99939.94;5052145;28;20233;-80
2021/06/03 01:43:46;;;;;;;4.73;4.33;;;;;;;10.91;76.73;99943.50;5058562;23;20256;-79
2021/06/03 01:46:21;;;;;;;6.87;4.63;;;;;;;10.89;76.52;99944.75;5034043;23;20239;-80
2021/06/03 01:48:51;;;;;;;7.57;5.30;;;;;;;10.84;76.81;99949.91;5017643;28;20199;-80
2021/06/03 01:51:22;;;;;;;5.30;4.90;;;;;;;10.82;77.31;99952.00;5016778;28;20256;-81
2021/06/03 01:53:51;;;;;;;5.50;5.00;;;;;;;10.80;77.14;99951.38;5016530;28;20245;-79
2021/06/03 01:56:27;;;;;;;6.77;4.90;;;;;;;10.74;76.99;99958.41;5032921;28;20638;-78
2021/06/03 01:59:03;;;;;;;5.70;5.10;;;;;;;10.69;76.81;99944.81;5033237;28;20222;-80
2021/06/03 02:01:34;;;;;;;5.60;5.00;;;;;;;10.72;76.61;99947.09;5030022;28;20496;-80
2021/06/03 02:04:02;;;;;;;5.83;5.13;;;;;;;10.61;76.60;99937.03;5033768;28;20175;-82
2021/06/03 02:06:31;;;;;;;5.73;5.17;;;;;;;10.58;76.68;99940.16;5015867;28;20211;-80
2021/06/03 02:09:09;;;;;;;5.90;5.30;;;;;;;10.54;77.07;99944.28;5033488;28;20223;-79
2021/06/03 02:11:56;;;;;;;6.83;5.07;;;;;;;10.50;76.80;99945.72;5016026;28;20223;-80
2021/06/03 02:14:36;;;;;;;5.10;4.60;;;;;;;10.41;76.59;99945.13;5034368;28;20229;-80
2021/06/03 02:17:19;;;;;;;5.17;4.77;;;;;;;10.41;77.48;99949.66;5034015;28;20309;-79
2021/06/03 02:20:24;;;;;;;6.20;5.00;;;;;;;10.39;77.27;99955.25;5016666;28;20234;-79
2021/06/03 02:22:55;;;;;;;5.53;5.03;;;;;;;10.31;77.95;99946.63;5034217;28;20218;-80
2021/06/03 02:25:36;;;;;;;6.50;5.13;;;;;;;10.35;77.62;99954.03;5010699;23;20190;-80
2021/06/03 02:28:17;;;;;;;5.20;4.80;;;;;;;10.35;78.26;99947.84;5027853;23;20241;-78
2021/06/03 02:30:49;;;;;;;6.87;5.47;;;;;;;10.29;78.12;99940.66;5034484;23;20287;-82
2021/06/03 02:33:20;;;;;;;6.00;5.40;;;;;;;10.29;78.50;99946.81;4977889;28;20239;-80
2021/06/03 02:35:50;;;;;;;6.87;6.07;;;;;;;10.25;78.63;99950.13;4978368;28;20307;-80
2021/06/03 02:38:30;;;;;;;6.20;5.70;;;;;;;10.22;78.82;99969.31;4960925;28;20224;-81
2021/06/03 02:41:07;;;;;;;6.80;5.70;;;;;;;10.17;79.12;99956.53;4993874;28;20224;-79
2021/06/03 02:43:42;;;;;;;7.97;5.57;;;;;;;10.11;79.16;99947.47;5006075;23;20292;-81
2021/06/03 02:46:18;;;;;;;6.67;5.93;;;;;;;10.05;79.30;99947.47;5023698;23;20250;-80
2021/06/03 02:48:52;;;;;;;7.30;5.63;;;;;;;10.08;79.59;99966.59;5053823;23;20244;-82
2021/06/03 02:51:26;;;;;;;6.60;6.00;;;;;;;9.98;79.88;99954.69;5036205;28;20226;-81
2021/06/03 02:53:58;;;;;;;7.27;5.83;;;;;;;9.97;79.73;99958.38;5053221;28;20222;-80
2021/06/03 02:56:37;;;;;;;6.63;6.03;;;;;;;9.93;80.19;99959.84;5026947;23;20242;-80
2021/06/03 02:59:13;;;;;;;7.10;6.07;;;;;;;9.98;79.92;99970.75;5042704;23;20311;-80
2021/06/03 03:01:45;;;;;;;6.67;6.07;;;;;;;9.97;80.03;99966.41;5016095;28;20275;-80
2021/06/03 03:04:18;;;;;;;6.77;6.17;;;;;;;9.95;79.83;99960.44;5031497;28;20223;-80
2021/06/03 03:07:08;;;;;;;7.37;6.67;;;;;;;10.04;79.64;99965.38;5047514;23;20230;-80
2021/06/03 03:09:37;;;;;;;7.53;6.87;;;;;;;9.97;79.57;99956.53;5021371;28;20210;-82
2021/06/03 03:12:27;;;;;;;7.73;6.93;;;;;;;10.01;79.83;99967.66;5053472;28;20252;-80
2021/06/03 03:14:58;;;;;;;6.87;6.20;;;;;;;9.92;80.23;99958.19;5052405;28;20321;-79
2021/06/03 03:17:28;;;;;;;8.13;6.47;;;;;;;10.02;79.96;99970.13;5053689;28;20274;-80
2021/06/03 03:20:01;;;;;;;7.23;6.53;;;;;;;9.98;80.10;99973.41;5052477;28;20253;-80
2021/06/03 03:22:50;;;;;;;8.00;6.50;;;;;;;10.00;79.94;99974.03;5036449;28;20213;-82
2021/06/03 03:25:23;;;;;;;7.10;6.50;;;;;;;10.04;80.01;99977.94;5054022;28;20281;-80
2021/06/03 03:27:56;;;;;;;8.37;6.30;;;;;;;10.09;79.73;99980.81;5035204;28;20229;-79
2021/06/03 03:30:29;;;;;;;7.17;6.20;;;;;;;10.06;79.32;99965.16;5053295;28;20230;-80
2021/06/03 03:33:20;;;;;;;7.87;6.80;;;;;;;10.17;79.09;99977.13;5041284;23;20269;-79
2021/06/03 03:36:05;;;;;;;7.40;6.77;;;;;;;10.13;78.38;99961.44;5023668;23;20226;-79
2021/06/03 03:38:40;;;;;;;6.97;6.27;;;;;;;10.24;78.86;99975.25;5016285;28;20243;-81
2021/06/03 03:41:11;;;;;;;7.47;6.77;;;;;;;10.30;78.65;99979.78;5014765;28;20211;-78
2021/06/03 03:43:39;;;;;;;8.07;6.57;;;;;;;10.44;78.31;99992.94;5032804;28;20226;-79
2021/06/03 03:46:12;;;;;;;7.67;6.53;;;;;;;10.47;77.99;99995.19;5032259;28;20231;-80
2021/06/03 03:48:58;;;;;;;7.60;6.87;;;;;;;10.49;78.26;99998.50;5033647;28;20219;-80
2021/06/03 03:51:28;;;;;;;7.20;6.50;;;;;;;10.47;78.05;99987.16;5032029;28;20230;-80
2021/06/03 03:53:58;;;;;;;7.60;6.90;;;;;;;10.52;78.25;99989.22;5033302;28;20242;-79
2021/06/03 03:56:28;;;;;;;7.63;6.87;;;;;;;11.36;76.70;100010.50;5031100;28;20238;-79
2021/06/03 03:59:02;;;;;;;6.80;6.20;;;;;;;12.61;72.96;100007.59;5026709;23;20220;-80
2021/06/03 04:01:33;;;;;;;6.70;5.80;;;;;;;14.93;64.05;100020.03;4980601;28;20215;-80
2021/06/03 04:04:03;;;;;;;8.90;6.00;;;;;;;16.50;58.60;100031.75;5013540;28;20211;-80
2021/06/03 04:06:49;;;;;;;7.13;5.97;;;;;;;17.03;55.55;100022.22;5027150;23;20238;-79
2021/06/03 04:09:18;;;;;;;6.70;5.43;;;;;;;16.72;56.03;100015.56;5022897;23;20219;-79
2021/06/03 04:12:13;;;;;;;6.67;5.77;;;;;;;16.76;55.48;100016.72;5000588;28;20219;-78
2021/06/03 04:15:22;;;;;;;6.23;5.50;;;;;;;16.93;55.41;100022.91;5082349;23;20264;31
2021/06/03 04:18:25;;;;;;;7.07;5.90;;;;;;;16.96;55.03;100013.44;4967949;29;20220;-84
2021/06/03 04:20:52;;;;;;;7.03;6.03;;;;;;;17.06;55.18;100017.09;4959535;28;20233;-86
2021/06/03 04:23:19;;;;;;;7.33;5.50;;;;;;;17.25;54.41;100020.31;4927605;29;20229;-87
2021/06/03 04:25:48;;;;;;;6.00;5.40;;;;;;;17.52;53.68;100033.84;4943703;28;20229;-84
2021/06/03 04:28:16;;;;;;;6.23;5.63;;;;;;;17.99;52.68;100036.78;4958778;28;20305;-86
2021/06/03 04:30:45;;;;;;;6.87;5.63;;;;;;;18.40;50.91;100076.72;4959417;28;20664;-87
2021/06/03 04:33:14;;;;;;;6.20;5.70;;;;;;;17.99;51.67;100036.78;4959157;28;20230;-85
2021/06/03 04:35:41;;;;;;;7.03;6.33;;;;;;;17.27;53.26;100033.56;4958685;28;20258;-88
2021/06/03 04:38:08;;;;;;;7.10;6.40;;;;;;;16.92;55.07;100042.91;4926726;29;20254;-88
2021/06/03 04:40:34;;;;;;;6.87;6.17;;;;;;;16.55;56.52;100039.94;4943126;29;20312;-84
2021/06/03 04:43:01;;;;;;;6.73;6.03;;;;;;;16.24;57.06;100027.00;4927201;29;20228;-84
2021/06/03 04:45:28;;;;;;;8.33;6.67;;;;;;;16.19;57.93;100043.19;4926964;29;20235;-86
2021/06/03 04:47:55;;;;;;;6.33;5.83;;;;;;;16.21;57.94;100049.97;4926784;29;20314;-84
2021/06/03 04:50:25;;;;;;;7.17;6.20;;;;;;;16.13;58.50;100050.38;4959273;29;20234;-86
2021/06/03 04:52:52;;;;;;;7.87;6.30;;;;;;;16.01;58.48;100052.31;4953035;28;20371;-83
2021/06/03 04:55:22;;;;;;;7.10;6.50;;;;;;;15.96;59.06;100057.63;4958741;29;20233;-88
2021/06/03 04:57:51;;;;;;;7.17;6.50;;;;;;;16.10;58.71;100068.94;4974343;28;20231;-86
2021/06/03 05:00:24;;;;;;;7.53;5.93;;;;;;;16.29;57.95;100067.66;4941949;29;20239;-83
2021/06/03 05:02:51;;;;;;;7.90;6.23;;;;;;;16.27;57.89;100062.50;4959631;29;20236;-88
2021/06/03 05:05:18;;;;;;;7.63;6.17;;;;;;;16.37;58.10;100053.72;4942518;28;20319;-85
2021/06/03 05:07:46;;;;;;;6.70;5.80;;;;;;;16.22;58.45;100048.91;4959291;29;20225;-88
2021/06/03 05:10:14;;;;;;;7.03;6.33;;;;;;;16.33;57.94;100062.59;4957934;28;20229;-87
2021/06/03 05:12:42;;;;;;;7.10;6.40;;;;;;;16.34;58.56;100056.91;4974236;28;20310;-86
2021/06/03 05:15:13;;;;;;;6.50;5.90;;;;;;;16.46;58.19;100064.94;4942271;29;20232;-86
2021/06/03 05:17:40;;;;;;;6.70;6.00;;;;;;;16.63;57.98;100068.47;4942119;29;20236;-86
2021/06/03 05:20:13;;;;;;;8.10;6.60;;;;;;;16.65;58.12;100063.66;4957796;28;20312;-82
2021/06/03 05:22:41;;;;;;;6.70;6.10;;;;;;;16.80;58.01;100071.97;4958361;29;20242;-88
2021/06/03 05:25:13;;;;;;;6.73;6.10;;;;;;;16.90;57.76;100082.09;4942351;29;20304;-81
2021/06/03 05:27:41;;;;;;;6.30;5.70;;;;;;;17.21;57.17;100086.06;4926086;29;20602;-85
2021/06/03 05:30:10;;;;;;;6.70;6.10;;;;;;;17.08;57.09;100082.63;4958061;28;20299;-85
2021/06/03 05:32:38;;;;;;;8.50;6.27;;;;;;;17.33;56.81;100086.72;4957752;28;20242;-79
2021/06/03 05:35:06;;;;;;;6.63;6.03;;;;;;;17.32;56.50;100091.31;4941875;29;20626;-86
2021/06/03 05:37:33;;;;;;;6.90;6.20;;;;;;;17.22;56.91;100087.69;4957826;29;20284;-87
2021/06/03 05:40:00;;;;;;;8.13;6.50;;;;;;;17.42;56.46;100082.50;4957754;28;20232;-87
2021/06/03 05:42:30;;;;;;;8.47;5.90;;;;;;;17.44;56.12;100077.66;4941654;29;20518;-82
2021/06/03 05:44:59;;;;;;;6.87;6.17;;;;;;;17.44;56.03;100093.91;4942492;29;20228;-86
2021/06/03 05:47:26;;;;;;;6.20;5.60;;;;;;;17.72;55.12;100088.31;4941587;29;20229;-82
2021/06/03 05:49:53;;;;;;;7.80;6.40;;;;;;;17.86;54.65;100084.13;4957547;28;20239;-84
2021/06/03 05:52:20;;;;;;;6.73;6.07;;;;;;;17.99;54.52;100093.72;4957990;29;20233;-85
2021/06/03 05:54:46;;;;;;;5.87;5.37;;;;;;;18.15;53.92;100095.47;4941705;28;20249;-87
2021/06/03 05:57:13;;;;;;;6.33;5.73;;;;;;;18.13;53.26;100084.09;4925773;29;20668;-85
2021/06/03 05:59:41;;;;;;;6.90;6.20;;;;;;;18.18;53.68;100097.69;4957320;28;20304;-87
2021/06/03 06:02:12;;;;;;;6.40;5.80;;;;;;;18.04;53.61;100089.16;4957121;28;20640;-83
2021/06/03 06:07:25;;;;;;;6.40;5.50;;;;;;;18.15;53.25;100097.41;4957498;28;22203;-86
2021/06/03 06:09:51;;;;;;;7.20;5.60;;;;;;;18.40;52.36;100095.69;4941548;28;20261;-86
2021/06/03 06:12:18;;;;;;;5.93;5.27;;;;;;;18.82;52.07;100097.66;4937760;29;20231;-86
2021/06/03 06:14:45;;;;;;;6.93;6.20;;;;;;;19.14;50.86;100111.94;4956936;28;20255;-86
2021/06/03 06:17:12;;;;;;;6.60;5.87;;;;;;;19.31;49.99;100098.19;4957947;29;20233;-85
2021/06/03 06:19:39;;;;;;;5.90;5.40;;;;;;;19.46;49.90;100100.16;4957848;29;20509;-82
2021/06/03 06:22:07;;;;;;;6.47;5.60;;;;;;;19.67;49.44;100115.47;4956662;28;20287;-84
2021/06/03 06:24:33;;;;;;;6.27;5.13;;;;;;;19.87;48.88;100114.72;4973175;28;20589;-83
2021/06/03 06:27:01;;;;;;;7.97;6.20;;;;;;;20.01;47.95;100108.47;4972859;28;20229;-82
2021/06/03 06:29:28;;;;;;;7.47;5.30;;;;;;;20.23;47.18;100102.78;4940940;28;20312;-82
2021/06/03 06:31:55;;;;;;;6.80;6.10;;;;;;;20.32;47.02;100108.53;4940789;28;20238;-82
2021/06/03 06:34:22;;;;;;;5.97;5.37;;;;;;;20.38;47.11;100112.88;4940202;28;20229;-80
2021/06/03 06:36:49;;;;;;;8.70;5.33;;;;;;;20.56;46.55;100117.78;4940175;29;20726;-81
2021/06/03 06:39:17;;;;;;;5.50;5.00;;;;;;;20.63;46.23;100118.31;4956748;28;20649;-83
2021/06/03 06:41:45;;;;;;;6.27;5.40;;;;;;;20.67;45.73;100110.44;4956622;28;20320;-83
2021/06/03 06:44:13;;;;;;;7.10;5.40;;;;;;;20.77;46.51;100113.09;4939892;28;20255;-86
2021/06/03 06:46:40;;;;;;;7.93;5.70;;;;;;;20.45;47.23;100099.81;4957487;29;20239;-86
2021/06/03 06:49:07;;;;;;;6.23;5.63;;;;;;;20.83;46.49;100101.94;4972450;28;20325;-81
2021/06/03 06:51:34;;;;;;;5.70;5.17;;;;;;;21.07;45.91;100118.50;4940549;28;20234;-79
2021/06/03 06:54:01;;;;;;;5.43;4.93;;;;;;;21.24;44.54;100112.75;4950754;28;20228;-80
2021/06/03 06:56:28;;;;;;;6.13;5.07;;;;;;;21.43;44.39;100124.69;4952050;28;20569;-80
2021/06/03 06:58:55;;;;;;;8.77;5.50;;;;;;;21.53;44.62;100119.19;4956168;28;20229;-85
2021/06/03 07:01:21;;;;;;;5.50;5.00;;;;;;;21.57;44.49;100119.44;4956360;28;20231;-86
2021/06/03 07:03:48;;;;;;;5.67;5.07;;;;;;;21.68;43.67;100115.56;4956169;28;20268;-82
2021/06/03 07:06:15;;;;;;;5.30;4.70;;;;;;;21.69;43.35;100126.22;4954909;28;20650;-83
2021/06/03 07:08:42;;;;;;;4.90;4.50;;;;;;;21.59;42.91;100106.34;4930883;28;20671;-86
2021/06/03 07:11:09;;;;;;;5.13;4.47;;;;;;;21.64;43.35;100111.78;4944231;28;20314;-81
2021/06/03 07:13:35;;;;;;;6.43;4.30;;;;;;;21.87;42.16;100113.84;4945237;28;20700;-82
2021/06/03 07:16:02;;;;;;;5.23;4.03;;;;;;;22.19;41.24;100118.81;4928083;29;20268;-80
2021/06/03 07:18:29;;;;;;;4.70;4.03;;;;;;;22.22;41.47;100115.53;4930422;28;20274;-79
2021/06/03 07:20:57;;;;;;;5.00;4.50;;;;;;;22.04;41.39;100113.47;4949968;29;20655;-83
2021/06/03 07:23:24;;;;;;;4.90;4.20;;;;;;;22.31;40.99;100116.53;4961059;28;20635;-79
2021/06/03 07:25:55;;;;;;;7.20;4.00;;;;;;;22.49;40.86;100112.31;4938430;29;20239;-80
2021/06/03 07:28:22;;;;;;;4.90;3.80;;;;;;;22.57;40.56;100117.16;4920160;29;20493;-81
2021/06/03 07:30:50;;;;;;;6.37;4.00;;;;;;;22.74;39.79;100118.38;4936647;29;20622;-83
2021/06/03 07:33:17;;;;;;;4.20;3.80;;;;;;;22.86;39.50;100111.72;4920883;29;20237;-82
2021/06/03 07:35:44;;;;;;;5.97;4.23;;;;;;;22.92;39.70;100125.03;4936386;29;20267;-80
2021/06/03 07:38:11;;;;;;;4.07;3.72;;;;;;;22.95;39.94;100112.72;4936043;29;20288;-85
2021/06/03 07:40:39;;;;;;;5.25;3.88;;;;;;;23.06;39.77;100114.22;4920472;29;20231;-79
2021/06/03 07:43:08;;;;;;;5.17;4.20;;;;;;;23.14;39.05;100119.88;4920791;29;20237;-82
2021/06/03 07:45:35;;;;;;;6.35;4.38;;;;;;;23.38;39.37;100121.78;4920335;29;20252;-80
2021/06/03 07:48:03;;;;;;;4.35;3.95;;;;;;;23.41;39.66;100122.03;4905402;29;20315;-80
2021/06/03 07:50:32;;;;;;;4.97;3.70;;;;;;;23.57;38.87;100120.75;4924336;29;20255;-80
2021/06/03 07:53:00;;;;;;;4.68;3.78;;;;;;;23.45;39.51;100108.63;4940242;29;20263;-80
2021/06/03 07:55:28;;;;;;;4.43;4.03;;;;;;;23.56;39.47;100112.84;4924401;29;20265;-79
2021/06/03 07:57:58;;;;;;;6.32;3.97;;;;;;;23.80;39.48;100116.34;4923758;29;20229;-80
2021/06/03 08:00:27;;;;;;;4.63;4.10;;;;;;;23.78;39.09;100113.09;4908255;29;20303;-83
2021/06/03 08:02:54;;;;;;;7.80;4.10;;;;;;;23.97;39.04;100116.66;4940239;29;20648;-81
2021/06/03 08:05:22;;;;;;;4.03;3.63;;;;;;;23.92;38.51;100127.69;4924220;29;20321;-84
2021/06/03 08:07:51;;;;;;;5.32;4.07;;;;;;;23.95;38.80;100126.25;4940692;29;20231;-84
2021/06/03 08:10:22;;;;;;;5.00;3.80;;;;;;;23.79;38.81;100113.91;4941373;28;20260;-79
2021/06/03 08:12:50;;;;;;;4.20;3.80;;;;;;;23.79;38.74;100106.53;4958999;28;20225;-80
2021/06/03 08:15:17;;;;;;;5.18;4.00;;;;;;;23.98;39.30;100121.00;4943080;28;20344;-84
2021/06/03 08:17:44;;;;;;;6.38;4.35;;;;;;;23.99;38.97;100110.88;4959069;28;20237;-80
2021/06/03 08:20:20;;;;;;;4.43;4.03;;;;;;;23.61;40.05;100123.69;4958526;28;20232;-84
2021/06/03 08:22:47;;;;;;;4.70;4.00;;;;;;;23.67;40.48;100109.69;4959035;28;20712;-79
2021/06/03 08:25:15;;;;;;;4.53;4.10;;;;;;;23.95;39.57;100110.66;4975130;28;20307;-80
2021/06/03 08:27:42;;;;;;;4.55;4.15;;;;;;;24.27;39.42;100120.88;4958807;28;20233;-79
2021/06/03 08:30:10;;;;;;;5.07;4.03;;;;;;;24.52;39.46;100127.84;4974286;28;20303;-79
2021/06/03 08:32:38;;;;;;;4.57;4.10;;;;;;;24.54;38.28;100117.44;4958581;28;20625;-80
2021/06/03 08:35:07;;;;;;;6.00;4.00;;;;;;;24.60;37.67;100127.16;4958656;28;20231;-85
2021/06/03 08:37:34;;;;;;;4.18;3.55;;;;;;;24.74;37.71;100118.97;4959638;29;20599;-80
2021/06/03 08:40:00;;;;;;;4.00;3.58;;;;;;;24.77;37.34;100124.69;4958599;28;20252;-85
2021/06/03 08:42:28;;;;;;;6.03;3.80;;;;;;;24.90;37.80;100117.63;4974252;28;20237;-84
2021/06/03 08:44:54;;;;;;;3.95;3.65;;;;;;;25.05;37.08;100117.34;4974369;28;20254;-82
2021/06/03 08:47:21;;;;;;;4.03;3.63;;;;;;;25.06;36.44;100113.47;4958598;28;20524;-84
2021/06/03 08:49:48;;;;;;;3.80;3.40;;;;;;;25.21;36.94;100115.94;4974205;28;20249;-82
2021/06/03 08:52:16;;;;;;;3.80;3.38;;;;;;;25.25;36.75;100103.22;4958816;29;20228;-79
2021/06/03 08:54:43;;;;;;;4.72;3.60;;;;;;;25.47;34.86;100112.69;4974302;28;20248;-79
2021/06/03 08:57:12;;;;;;;4.20;3.50;;;;;;;25.31;35.17;100104.75;4958201;28;20238;-85
2021/06/03 08:59:40;;;;;;;4.65;3.35;;;;;;;25.29;35.80;100106.97;4957451;28;20259;-84
2021/06/03 09:02:06;;;;;;;4.82;3.83;;;;;;;25.38;35.02;100098.88;4926180;29;20233;-82
2021/06/03 09:04:33;;;;;;;3.28;2.90;;;;;;;25.43;34.66;100109.72;4941835;28;20332;-80
2021/06/03 09:07:00;;;;;;;4.15;3.20;;;;;;;25.53;34.60;100104.00;4942153;28;20236;-83
2021/06/03 09:09:29;;;;;;;4.28;3.33;;;;;;;25.60;34.22;100107.19;4957140;28;20319;-80
2021/06/03 09:12:11;;;;;;;4.32;3.78;;;;;;;25.61;34.52;100106.09;4948839;29;20239;-84
2021/06/03 09:14:38;;;;;;;3.58;3.28;;;;;;;25.76;35.79;100105.72;4939254;28;20228;-80
2021/06/03 09:17:05;;;;;;;5.07;3.28;;;;;;;25.56;34.78;100100.72;4934135;29;20324;-79
2021/06/03 09:19:32;;;;;;;3.30;3.00;;;;;;;25.71;33.99;100102.31;4957907;28;20300;-80
2021/06/03 09:22:02;;;;;;;3.58;3.22;;;;;;;25.68;34.38;100105.66;4958231;29;20219;-83
2021/06/03 09:24:33;;;;;;;3.28;2.85;;;;;;;25.82;34.36;100107.25;4957333;28;20236;-81
2021/06/03 09:27:01;;;;;;;3.40;3.10;;;;;;;25.79;34.07;100098.84;4957927;28;20644;-80
2021/06/03 09:29:32;;;;;;;3.47;3.22;;;;;;;25.81;34.11;100107.56;4941583;29;20288;-81
2021/06/03 09:32:08;;;;;;;4.40;2.97;;;;;;;25.94;33.90;100105.91;4957639;28;20530;-79
2021/06/03 09:34:36;;;;;;;3.33;3.13;;;;;;;25.88;33.34;100094.22;4957901;28;20635;-82
2021/06/03 09:37:05;;;;;;;4.03;3.20;;;;;;;25.96;33.99;100103.66;4957450;28;20318;-82
2021/06/03 09:39:39;;;;;;;4.00;2.92;;;;;;;25.98;34.59;100104.97;4957399;28;20660;-80
2021/06/03 09:42:06;;;;;;;3.63;2.90;;;;;;;26.15;33.57;100102.38;4956871;28;20238;-80
2021/06/03 09:44:39;;;;;;;3.50;3.20;;;;;;;26.19;33.38;100103.38;4958177;29;20323;-80
2021/06/03 09:47:24;;;;;;;3.67;2.97;;;;;;;26.16;32.56;100092.19;4971087;28;20224;-81
2021/06/03 09:49:54;;;;;;;4.70;3.05;;;;;;;26.31;32.96;100091.88;4941169;28;20246;-81
2021/06/03 09:52:26;;;;;;;3.50;3.10;;;;;;;26.24;32.63;100091.47;4972976;28;20315;-81
2021/06/03 09:54:58;;;;;;;4.30;3.00;;;;;;;26.28;32.46;100092.47;4941340;28;20239;-79
2021/06/03 09:57:34;;;;;;;3.60;2.83;;;;;;;26.24;33.39;100097.78;4940977;28;20703;-82
2021/06/03 10:00:06;;;;;;;3.47;3.17;;;;;;;26.39;32.83;100082.06;4940848;28;20238;-80
2021/06/03 10:02:37;;;;;;;2.95;2.75;;;;;;;26.23;32.24;100082.41;4942187;28;20236;-80
2021/06/03 10:05:15;;;;;;;3.20;2.90;;;;;;;26.27;32.28;100085.34;4973103;28;20318;-82
2021/06/03 10:07:54;;;;;;;4.60;3.00;;;;;;;26.58;31.65;100088.16;4957703;29;20241;-82
2021/06/03 10:10:22;;;;;;;3.67;2.90;;;;;;;26.61;32.32;100076.53;4957521;29;20504;-81
2021/06/03 10:12:50;;;;;;;3.30;3.00;;;;;;;26.74;31.78;100081.13;4939551;29;20317;-79
2021/06/03 10:15:20;;;;;;;4.15;3.10;;;;;;;26.47;32.25;100084.84;4956887;28;20311;-80
2021/06/03 10:17:58;;;;;;;8.52;7.82;;;;;;;26.56;32.85;100079.41;4957097;29;20596;-78
2021/06/03 10:20:40;;;;;;;4.30;3.90;;;;;;;26.78;32.75;100084.06;4937182;28;20235;-80
2021/06/03 10:23:10;;;;;;;3.33;3.03;;;;;;;26.87;31.42;100084.94;4955887;29;20258;-80
2021/06/03 10:25:41;;;;;;;4.00;3.60;;;;;;;27.09;31.02;100082.94;4940684;28;20236;-80
2021/06/03 10:28:14;;;;;;;4.75;3.10;;;;;;;27.20;30.47;100088.97;4956174;28;20282;-79
2021/06/03 10:30:55;;;;;;;4.20;3.13;;;;;;;27.19;30.30;100081.03;4956700;28;20236;-82
2021/06/03 10:33:28;;;;;;;3.65;2.70;;;;;;;27.22;31.91;100075.69;4940644;29;20637;-80
2021/06/03 10:36:00;;;;;;;3.10;2.88;;;;;;;27.31;31.24;100086.72;4957389;29;20240;-80
2021/06/03 10:38:27;;;;;;;4.80;3.58;;;;;;;27.25;30.07;100055.78;4940191;29;20236;-80
2021/06/03 10:40:57;;;;;;;5.20;3.40;;;;;;;27.44;30.71;100063.75;4957526;29;20689;-79
2021/06/03 10:43:25;;;;;;;3.70;3.28;;;;;;;27.46;30.49;100056.81;4956384;28;20323;-80
2021/06/03 10:45:51;;;;;;;3.28;3.03;;;;;;;27.64;30.94;100063.19;4940168;28;20251;-80
2021/06/03 10:48:18;;;;;;;3.45;3.15;;;;;;;27.52;30.92;100063.81;4956631;29;20585;-80
2021/06/03 10:50:53;;;;;;;3.05;2.85;;;;;;;27.58;30.10;100061.72;4956275;28;20255;-81
2021/06/03 10:53:25;;;;;;;5.55;2.95;;;;;;;27.61;30.88;100068.53;4957098;29;20255;-80
2021/06/03 10:55:55;;;;;;;3.00;2.78;;;;;;;27.61;30.75;100065.78;4956270;28;20327;-80
2021/06/03 10:58:37;;;;;;;3.67;3.20;;;;;;;27.66;31.32;100069.19;4955489;28;20229;-80
2021/06/03 11:01:04;;;;;;;4.30;3.53;;;;;;;27.33;31.21;100068.78;4972063;28;20679;-79
2021/06/03 11:03:38;;;;;;;3.90;3.50;;;;;;;27.48;30.44;100075.78;4971944;28;20307;-81
2021/06/03 11:06:08;;;;;;;3.85;3.35;;;;;;;27.52;31.39;100080.34;4956714;29;20232;-81
2021/06/03 11:08:46;;;;;;;3.35;3.05;;;;;;;27.73;31.07;100075.00;4940079;29;20235;-82
2021/06/03 11:11:13;;;;;;;3.85;3.55;;;;;;;27.36;31.26;100075.56;4972021;28;20254;-80
2021/06/03 11:13:46;;;;;;;4.13;3.30;;;;;;;27.59;30.89;100080.66;4956856;29;20342;-80
2021/06/03 11:16:19;;;;;;;4.00;3.38;;;;;;;27.74;30.17;100071.13;4956209;29;20244;-79
2021/06/03 11:18:49;;;;;;;3.60;3.28;;;;;;;27.65;30.40;100081.31;4957014;29;20224;-80
2021/06/03 11:21:31;;;;;;;5.40;3.55;;;;;;;27.56;31.49;100078.56;4972064;28;20335;-79
2021/06/03 11:23:59;;;;;;;5.80;3.63;;;;;;;27.56;30.85;100072.25;4971443;28;20243;-80
2021/06/03 11:26:38;;;;;;;5.72;3.35;;;;;;;27.41;32.08;100075.41;4971361;28;20266;-81
2021/06/03 11:29:20;;;;;;;3.38;3.08;;;;;;;27.33;31.75;100068.78;4956822;29;20232;-80
2021/06/03 11:32:05;;;;;;;4.47;3.30;;;;;;;27.86;31.10;100071.28;4970613;28;20316;-79
2021/06/03 11:34:39;;;;;;;5.28;3.00;;;;;;;28.10;31.07;100067.22;4939550;28;20228;-81
2021/06/03 11:37:09;;;;;;;3.90;3.40;;;;;;;28.15;30.33;100061.59;4970474;28;20320;-80
2021/06/03 11:39:55;;;;;;;4.68;3.50;;;;;;;28.38;29.95;100068.53;4956653;29;20280;-81
2021/06/03 11:42:29;;;;;;;4.43;3.10;;;;;;;28.31;29.92;100057.22;4971425;28;20252;-80
2021/06/03 11:45:07;;;;;;;5.15;3.20;;;;;;;28.37;29.28;100059.44;4955640;28;20239;-81
2021/06/03 11:47:37;;;;;;;3.20;3.00;;;;;;;28.76;30.77;100054.84;4971726;28;20243;-81
2021/06/03 11:50:16;;;;;;;4.00;2.95;;;;;;;28.79;29.64;100052.22;4955260;28;20221;-81
2021/06/03 11:52:56;;;;;;;3.47;3.10;;;;;;;28.94;29.67;100058.31;4971833;28;20238;-80
2021/06/03 11:55:34;;;;;;;4.72;3.28;;;;;;;28.77;28.64;100048.19;4955663;28;20228;-81